sensor_id;sensor_type;location;lat;lon;timestamp;pressure;altitude;pressure_sealevel;temperature;humidity
60611;BME280;46439;51.164;13.572;2023-04-02T00:02:31;99219.46;;;6.90;94.83
60611;BME280;46439;51.164;13.572;2023-04-02T00:07:49;99225.20;;;6.78;95.13
60611;BME280;46439;51.164;13.572;2023-04-02T00:10:28;99226.16;;;6.72;95.22
60611;BME280;46439;51.164;13.572;2023-04-02T00:13:03;99234.04;;;6.70;95.47
60611;BME280;46439;51.164;13.572;2023-04-02T00:15:32;99238.88;;;6.65;95.52
60611;BME280;46439;51.164;13.572;2023-04-02T00:18:02;99239.00;;;6.60;95.59
60611;BME280;46439;51.164;13.572;2023-04-02T00:20:34;99244.54;;;6.53;95.82
60611;BME280;46439;51.164;13.572;2023-04-02T00:23:06;99251.34;;;6.48;95.76
60611;BME280;46439;51.164;13.572;2023-04-02T00:25:39;99256.03;;;6.45;95.83
60611;BME280;46439;51.164;13.572;2023-04-02T00:28:13;99259.59;;;6.43;95.97
60611;BME280;46439;51.164;13.572;2023-04-02T00:30:45;99268.41;;;6.41;96.05
60611;BME280;46439;51.164;13.572;2023-04-02T00:33:17;99267.85;;;6.40;96.06
60611;BME280;46439;51.164;13.572;2023-04-02T00:35:48;99271.53;;;6.39;96.25
60611;BME280;46439;51.164;13.572;2023-04-02T00:38:22;99276.29;;;6.36;96.39
60611;BME280;46439;51.164;13.572;2023-04-02T00:40:54;99277.77;;;6.32;96.40
60611;BME280;46439;51.164;13.572;2023-04-02T00:43:24;99281.48;;;6.29;96.35
60611;BME280;46439;51.164;13.572;2023-04-02T00:45:58;99288.77;;;6.28;96.39
60611;BME280;46439;51.164;13.572;2023-04-02T00:48:45;99291.91;;;6.22;96.51
60611;BME280;46439;51.164;13.572;2023-04-02T00:51:21;99295.85;;;6.12;96.47
60611;BME280;46439;51.164;13.572;2023-04-02T00:53:53;99302.08;;;6.07;96.56
60611;BME280;46439;51.164;13.572;2023-04-02T00:56:25;99304.58;;;6.09;96.62
60611;BME280;46439;51.164;13.572;2023-04-02T00:58:56;99306.42;;;6.05;96.71
60611;BME280;46439;51.164;13.572;2023-04-02T01:01:28;99307.23;;;6.03;96.68
60611;BME280;46439;51.164;13.572;2023-04-02T01:04:02;99309.51;;;6.06;96.99
60611;BME280;46439;51.164;13.572;2023-04-02T01:06:33;99316.14;;;6.08;97.06
60611;BME280;46439;51.164;13.572;2023-04-02T01:09:13;99319.20;;;6.09;97.14
60611;BME280;46439;51.164;13.572;2023-04-02T01:12:08;99327.16;;;6.15;97.22
60611;BME280;46439;51.164;13.572;2023-04-02T01:14:51;99333.38;;;6.17;97.37
60611;BME280;46439;51.164;13.572;2023-04-02T01:17:37;99343.61;;;6.15;97.28
60611;BME280;46439;51.164;13.572;2023-04-02T01:20:36;99345.98;;;6.09;97.27
60611;BME280;46439;51.164;13.572;2023-04-02T01:23:13;99355.09;;;6.08;97.16
60611;BME280;46439;51.164;13.572;2023-04-02T01:25:48;99357.10;;;6.11;97.15
60611;BME280;46439;51.164;13.572;2023-04-02T01:28:21;99362.88;;;6.13;97.41
60611;BME280;46439;51.164;13.572;2023-04-02T01:30:54;99366.91;;;6.19;97.62
60611;BME280;46439;51.164;13.572;2023-04-02T01:33:26;99380.58;;;6.20;97.69
60611;BME280;46439;51.164;13.572;2023-04-02T01:36:01;99389.85;;;6.15;97.50
60611;BME280;46439;51.164;13.572;2023-04-02T01:38:38;99392.17;;;6.05;97.29
60611;BME280;46439;51.164;13.572;2023-04-02T01:41:15;99399.63;;;6.01;97.26
60611;BME280;46439;51.164;13.572;2023-04-02T01:43:52;99404.78;;;6.01;97.35
60611;BME280;46439;51.164;13.572;2023-04-02T01:46:28;99412.63;;;6.01;97.27
60611;BME280;46439;51.164;13.572;2023-04-02T01:48:58;99418.00;;;5.99;97.29
60611;BME280;46439;51.164;13.572;2023-04-02T01:51:30;99421.38;;;5.98;97.39
60611;BME280;46439;51.164;13.572;2023-04-02T01:54:02;99423.10;;;6.00;97.36
60611;BME280;46439;51.164;13.572;2023-04-02T01:56:31;99431.82;;;6.04;97.65
60611;BME280;46439;51.164;13.572;2023-04-02T01:59:00;99433.11;;;6.01;97.57
60611;BME280;46439;51.164;13.572;2023-04-02T02:01:34;99439.75;;;5.96;97.51
60611;BME280;46439;51.164;13.572;2023-04-02T02:04:04;99443.15;;;5.89;97.32
60611;BME280;46439;51.164;13.572;2023-04-02T02:06:33;99444.76;;;5.89;97.32
60611;BME280;46439;51.164;13.572;2023-04-02T02:09:03;99453.11;;;5.91;97.65
60611;BME280;46439;51.164;13.572;2023-04-02T02:11:33;99458.48;;;5.92;97.68
60611;BME280;46439;51.164;13.572;2023-04-02T02:14:08;99464.21;;;5.91;97.67
60611;BME280;46439;51.164;13.572;2023-04-02T02:16:39;99466.16;;;5.89;97.51
60611;BME280;46439;51.164;13.572;2023-04-02T02:19:20;99477.77;;;5.82;97.49
60611;BME280;46439;51.164;13.572;2023-04-02T02:21:52;99478.41;;;5.74;97.36
60611;BME280;46439;51.164;13.572;2023-04-02T02:24:24;99475.98;;;5.65;97.16
60611;BME280;46439;51.164;13.572;2023-04-02T02:26:56;99485.73;;;5.62;97.22
60611;BME280;46439;51.164;13.572;2023-04-02T02:29:27;99488.11;;;5.56;97.39
60611;BME280;46439;51.164;13.572;2023-04-02T02:31:57;99492.70;;;5.52;97.16
60611;BME280;46439;51.164;13.572;2023-04-02T02:34:32;99495.69;;;5.49;97.30
60611;BME280;46439;51.164;13.572;2023-04-02T02:37:07;99505.55;;;5.48;97.34
60611;BME280;46439;51.164;13.572;2023-04-02T02:39:42;99507.77;;;5.39;97.28
60611;BME280;46439;51.164;13.572;2023-04-02T02:42:14;99516.42;;;5.36;97.41
60611;BME280;46439;51.164;13.572;2023-04-02T02:44:47;99521.25;;;5.34;97.36
60611;BME280;46439;51.164;13.572;2023-04-02T02:47:20;99523.09;;;5.30;97.43
60611;BME280;46439;51.164;13.572;2023-04-02T02:49:54;99528.70;;;5.24;97.27
60611;BME280;46439;51.164;13.572;2023-04-02T02:52:22;99533.41;;;5.14;97.32
60611;BME280;46439;51.164;13.572;2023-04-02T02:54:55;99533.16;;;5.10;97.20
60611;BME280;46439;51.164;13.572;2023-04-02T02:57:27;99539.61;;;5.09;97.54
60611;BME280;46439;51.164;13.572;2023-04-02T02:59:59;99546.83;;;5.15;97.52
60611;BME280;46439;51.164;13.572;2023-04-02T03:02:29;99548.19;;;5.18;97.96
60611;BME280;46439;51.164;13.572;2023-04-02T03:04:58;99547.67;;;5.14;97.65
60611;BME280;46439;51.164;13.572;2023-04-02T03:07:30;99555.86;;;5.09;97.65
60611;BME280;46439;51.164;13.572;2023-04-02T03:10:04;99563.41;;;5.09;97.65
60611;BME280;46439;51.164;13.572;2023-04-02T03:12:42;99565.73;;;5.07;97.63
60611;BME280;46439;51.164;13.572;2023-04-02T03:15:20;99570.64;;;5.02;97.68
60611;BME280;46439;51.164;13.572;2023-04-02T03:17:52;99578.14;;;4.98;97.56
60611;BME280;46439;51.164;13.572;2023-04-02T03:20:28;99581.17;;;5.02;97.86
60611;BME280;46439;51.164;13.572;2023-04-02T03:23:05;99589.04;;;5.09;97.94
60611;BME280;46439;51.164;13.572;2023-04-02T03:25:40;99595.00;;;5.07;98.15
60611;BME280;46439;51.164;13.572;2023-04-02T03:28:15;99599.41;;;5.05;97.97
60611;BME280;46439;51.164;13.572;2023-04-02T03:30:48;99602.95;;;4.96;97.86
60611;BME280;46439;51.164;13.572;2023-04-02T03:33:18;99606.77;;;4.89;97.75
60611;BME280;46439;51.164;13.572;2023-04-02T03:35:55;99611.86;;;4.88;97.67
60611;BME280;46439;51.164;13.572;2023-04-02T03:38:28;99620.95;;;4.88;97.78
60611;BME280;46439;51.164;13.572;2023-04-02T03:41:06;99624.75;;;4.87;97.99
60611;BME280;46439;51.164;13.572;2023-04-02T03:43:41;99629.19;;;4.89;98.06
60611;BME280;46439;51.164;13.572;2023-04-02T03:46:21;99635.42;;;4.91;98.10
60611;BME280;46439;51.164;13.572;2023-04-02T03:48:53;99643.40;;;4.92;98.08
60611;BME280;46439;51.164;13.572;2023-04-02T03:51:26;99650.27;;;4.88;98.07
60611;BME280;46439;51.164;13.572;2023-04-02T03:53:57;99651.66;;;4.83;98.05
60611;BME280;46439;51.164;13.572;2023-04-02T03:56:29;99662.24;;;4.79;97.96
60611;BME280;46439;51.164;13.572;2023-04-02T03:59:06;99665.20;;;4.79;97.85
60611;BME280;46439;51.164;13.572;2023-04-02T04:01:44;99671.41;;;4.78;98.00
60611;BME280;46439;51.164;13.572;2023-04-02T04:04:17;99685.02;;;4.72;97.93
60611;BME280;46439;51.164;13.572;2023-04-02T04:06:48;99691.48;;;4.71;97.89
60611;BME280;46439;51.164;13.572;2023-04-02T04:09:21;99698.98;;;4.71;97.92
60611;BME280;46439;51.164;13.572;2023-04-02T04:11:54;99702.66;;;4.61;97.92
60611;BME280;46439;51.164;13.572;2023-04-02T04:14:31;99707.02;;;4.55;98.04
60611;BME280;46439;51.164;13.572;2023-04-02T04:17:04;99712.50;;;4.51;97.99
60611;BME280;46439;51.164;13.572;2023-04-02T04:19:43;99725.83;;;4.50;98.07
60611;BME280;46439;51.164;13.572;2023-04-02T04:22:16;99730.81;;;4.46;98.05
60611;BME280;46439;51.164;13.572;2023-04-02T04:24:47;99736.25;;;4.41;97.91
60611;BME280;46439;51.164;13.572;2023-04-02T04:27:22;99741.05;;;4.35;97.91
60611;BME280;46439;51.164;13.572;2023-04-02T04:30:04;99747.59;;;4.32;98.08
60611;BME280;46439;51.164;13.572;2023-04-02T04:32:36;99756.62;;;4.29;97.93
60611;BME280;46439;51.164;13.572;2023-04-02T04:35:14;99753.16;;;4.22;97.86
60611;BME280;46439;51.164;13.572;2023-04-02T04:37:46;99760.23;;;4.21;97.72
60611;BME280;46439;51.164;13.572;2023-04-02T04:40:17;99763.23;;;4.25;97.76
60611;BME280;46439;51.164;13.572;2023-04-02T04:42:49;99768.91;;;4.25;98.19
60611;BME280;46439;51.164;13.572;2023-04-02T04:45:33;99776.30;;;4.22;98.18
60611;BME280;46439;51.164;13.572;2023-04-02T04:48:07;99783.79;;;4.18;98.03
60611;BME280;46439;51.164;13.572;2023-04-02T04:50:44;99791.27;;;4.14;98.13
60611;BME280;46439;51.164;13.572;2023-04-02T04:53:20;99793.79;;;4.08;97.96
60611;BME280;46439;51.164;13.572;2023-04-02T04:55:50;99799.22;;;4.03;98.17
60611;BME280;46439;51.164;13.572;2023-04-02T04:58:22;99803.15;;;4.07;98.19
60611;BME280;46439;51.164;13.572;2023-04-02T05:00:55;99808.63;;;4.10;98.16
60611;BME280;46439;51.164;13.572;2023-04-02T05:03:31;99814.45;;;4.09;98.42
60611;BME280;46439;51.164;13.572;2023-04-02T05:06:10;99819.38;;;4.07;98.28
60611;BME280;46439;51.164;13.572;2023-04-02T05:08:43;99827.02;;;4.11;98.41
60611;BME280;46439;51.164;13.572;2023-04-02T05:11:18;99833.85;;;4.10;98.55
60611;BME280;46439;51.164;13.572;2023-04-02T05:13:51;99841.86;;;4.09;98.26
60611;BME280;46439;51.164;13.572;2023-04-02T05:16:25;99848.08;;;3.99;98.49
60611;BME280;46439;51.164;13.572;2023-04-02T05:19:02;99856.17;;;3.88;97.75
60611;BME280;46439;51.164;13.572;2023-04-02T05:21:39;99867.36;;;3.80;97.83
60611;BME280;46439;51.164;13.572;2023-04-02T05:24:34;99866.35;;;3.72;97.77
60611;BME280;46439;51.164;13.572;2023-04-02T05:27:14;99877.19;;;3.68;97.86
60611;BME280;46439;51.164;13.572;2023-04-02T05:29:45;99881.80;;;3.60;98.05
60611;BME280;46439;51.164;13.572;2023-04-02T05:32:18;99883.60;;;3.60;98.04
60611;BME280;46439;51.164;13.572;2023-04-02T05:34:53;99891.06;;;3.58;98.12
60611;BME280;46439;51.164;13.572;2023-04-02T05:37:27;99896.93;;;3.54;98.33
60611;BME280;46439;51.164;13.572;2023-04-02T05:39:59;99902.27;;;3.48;97.87
60611;BME280;46439;51.164;13.572;2023-04-02T05:42:33;99908.83;;;3.46;97.99
60611;BME280;46439;51.164;13.572;2023-04-02T05:45:16;99911.02;;;3.41;97.74
60611;BME280;46439;51.164;13.572;2023-04-02T05:47:48;99916.86;;;3.42;97.98
60611;BME280;46439;51.164;13.572;2023-04-02T05:50:23;99922.92;;;3.37;98.13
60611;BME280;46439;51.164;13.572;2023-04-02T05:52:57;99930.31;;;3.32;97.96
60611;BME280;46439;51.164;13.572;2023-04-02T05:55:48;99928.48;;;3.31;98.31
60611;BME280;46439;51.164;13.572;2023-04-02T05:58:23;99941.11;;;3.31;98.20
60611;BME280;46439;51.164;13.572;2023-04-02T06:03:48;99949.77;;;3.35;98.61
60611;BME280;46439;51.164;13.572;2023-04-02T06:06:24;99955.40;;;3.34;98.28
60611;BME280;46439;51.164;13.572;2023-04-02T06:08:58;99963.92;;;3.36;98.49
60611;BME280;46439;51.164;13.572;2023-04-02T06:11:31;99962.44;;;3.37;98.67
60611;BME280;46439;51.164;13.572;2023-04-02T06:14:04;99969.44;;;3.34;98.51
60611;BME280;46439;51.164;13.572;2023-04-02T06:16:33;99970.76;;;3.33;98.66
60611;BME280;46439;51.164;13.572;2023-04-02T06:19:06;99975.88;;;3.34;98.31
60611;BME280;46439;51.164;13.572;2023-04-02T06:21:44;99980.91;;;3.33;98.58
60611;BME280;46439;51.164;13.572;2023-04-02T06:24:14;99987.95;;;3.32;98.45
60611;BME280;46439;51.164;13.572;2023-04-02T06:26:46;99991.54;;;3.32;98.49
60611;BME280;46439;51.164;13.572;2023-04-02T06:29:22;99994.38;;;3.32;98.42
60611;BME280;46439;51.164;13.572;2023-04-02T06:31:56;99998.65;;;3.38;98.68
60611;BME280;46439;51.164;13.572;2023-04-02T06:34:27;100005.87;;;3.37;98.91
60611;BME280;46439;51.164;13.572;2023-04-02T06:36:58;100009.09;;;3.32;98.68
60611;BME280;46439;51.164;13.572;2023-04-02T06:39:27;100017.37;;;3.31;98.45
60611;BME280;46439;51.164;13.572;2023-04-02T06:42:00;100020.36;;;3.27;98.60
60611;BME280;46439;51.164;13.572;2023-04-02T06:44:32;100022.35;;;3.27;98.66
60611;BME280;46439;51.164;13.572;2023-04-02T06:47:04;100026.34;;;3.28;98.77
60611;BME280;46439;51.164;13.572;2023-04-02T06:49:38;100033.48;;;3.30;98.54
60611;BME280;46439;51.164;13.572;2023-04-02T06:52:14;100041.64;;;3.26;98.82
60611;BME280;46439;51.164;13.572;2023-04-02T06:54:45;100041.73;;;3.23;99.04
60611;BME280;46439;51.164;13.572;2023-04-02T06:57:14;100050.86;;;3.24;98.74
60611;BME280;46439;51.164;13.572;2023-04-02T06:59:43;100054.56;;;3.27;98.95
60611;BME280;46439;51.164;13.572;2023-04-02T07:02:25;100058.17;;;3.30;99.05
60611;BME280;46439;51.164;13.572;2023-04-02T07:04:59;100064.11;;;3.32;98.86
60611;BME280;46439;51.164;13.572;2023-04-02T07:07:26;100066.04;;;3.34;99.24
60611;BME280;46439;51.164;13.572;2023-04-02T07:09:55;100076.60;;;3.31;99.07
60611;BME280;46439;51.164;13.572;2023-04-02T07:12:25;100077.08;;;3.30;98.95
60611;BME280;46439;51.164;13.572;2023-04-02T07:14:54;100086.60;;;3.31;99.09
60611;BME280;46439;51.164;13.572;2023-04-02T07:17:22;100090.14;;;3.33;98.95
60611;BME280;46439;51.164;13.572;2023-04-02T07:19:51;100092.79;;;3.40;99.31
60611;BME280;46439;51.164;13.572;2023-04-02T07:22:19;100097.27;;;3.48;99.31
60611;BME280;46439;51.164;13.572;2023-04-02T07:24:48;100105.43;;;3.44;99.32
60611;BME280;46439;51.164;13.572;2023-04-02T07:27:16;100102.52;;;3.40;99.25
60611;BME280;46439;51.164;13.572;2023-04-02T07:29:45;100107.22;;;3.41;99.26
60611;BME280;46439;51.164;13.572;2023-04-02T07:32:14;100107.32;;;3.49;99.17
60611;BME280;46439;51.164;13.572;2023-04-02T07:34:42;100116.22;;;3.59;99.63
60611;BME280;46439;51.164;13.572;2023-04-02T07:37:13;100117.10;;;3.63;99.59
60611;BME280;46439;51.164;13.572;2023-04-02T07:39:42;100124.38;;;3.64;99.50
60611;BME280;46439;51.164;13.572;2023-04-02T07:42:10;100127.86;;;3.65;99.47
60611;BME280;46439;51.164;13.572;2023-04-02T07:44:38;100129.32;;;3.64;99.15
60611;BME280;46439;51.164;13.572;2023-04-02T07:47:07;100138.94;;;3.69;99.51
60611;BME280;46439;51.164;13.572;2023-04-02T07:49:37;100147.80;;;3.69;99.67
60611;BME280;46439;51.164;13.572;2023-04-02T07:52:06;100151.52;;;3.65;99.17
60611;BME280;46439;51.164;13.572;2023-04-02T07:54:34;100155.26;;;3.67;99.44
60611;BME280;46439;51.164;13.572;2023-04-02T07:57:03;100160.75;;;3.70;99.29
60611;BME280;46439;51.164;13.572;2023-04-02T07:59:31;100165.58;;;3.67;99.12
60611;BME280;46439;51.164;13.572;2023-04-02T08:02:00;100167.70;;;3.65;99.11
60611;BME280;46439;51.164;13.572;2023-04-02T08:04:30;100168.34;;;3.68;99.59
60611;BME280;46439;51.164;13.572;2023-04-02T08:06:58;100177.92;;;3.66;98.98
60611;BME280;46439;51.164;13.572;2023-04-02T08:09:27;100180.98;;;3.66;99.07
60611;BME280;46439;51.164;13.572;2023-04-02T08:11:55;100186.40;;;3.65;99.08
60611;BME280;46439;51.164;13.572;2023-04-02T08:14:23;100192.10;;;3.69;99.22
60611;BME280;46439;51.164;13.572;2023-04-02T08:16:53;100198.59;;;3.68;98.97
60611;BME280;46439;51.164;13.572;2023-04-02T08:19:23;100201.03;;;3.71;99.08
60611;BME280;46439;51.164;13.572;2023-04-02T08:21:52;100204.94;;;3.75;99.26
60611;BME280;46439;51.164;13.572;2023-04-02T08:24:21;100213.16;;;3.75;99.13
60611;BME280;46439;51.164;13.572;2023-04-02T08:26:50;100214.68;;;3.74;99.07
60611;BME280;46439;51.164;13.572;2023-04-02T08:29:22;100218.90;;;3.77;99.18
60611;BME280;46439;51.164;13.572;2023-04-02T08:31:50;100224.05;;;3.79;99.11
60611;BME280;46439;51.164;13.572;2023-04-02T08:34:19;100228.21;;;3.76;98.97
60611;BME280;46439;51.164;13.572;2023-04-02T08:36:47;100230.63;;;3.75;99.22
60611;BME280;46439;51.164;13.572;2023-04-02T08:39:16;100232.40;;;3.75;98.78
60611;BME280;46439;51.164;13.572;2023-04-02T08:41:51;100237.35;;;3.75;98.70
60611;BME280;46439;51.164;13.572;2023-04-02T08:44:40;100244.12;;;3.77;98.86
60611;BME280;46439;51.164;13.572;2023-04-02T08:47:13;100250.42;;;3.81;98.74
60611;BME280;46439;51.164;13.572;2023-04-02T08:49:49;100254.29;;;3.81;98.80
60611;BME280;46439;51.164;13.572;2023-04-02T08:52:23;100258.55;;;3.79;98.64
60611;BME280;46439;51.164;13.572;2023-04-02T08:54:51;100265.98;;;3.75;98.51
60611;BME280;46439;51.164;13.572;2023-04-02T08:57:27;100267.10;;;3.71;98.41
60611;BME280;46439;51.164;13.572;2023-04-02T09:00:03;100268.95;;;3.70;98.13
60611;BME280;46439;51.164;13.572;2023-04-02T09:02:38;100277.89;;;3.67;98.42
60611;BME280;46439;51.164;13.572;2023-04-02T09:05:19;100277.52;;;3.61;98.11
60611;BME280;46439;51.164;13.572;2023-04-02T09:07:51;100283.17;;;3.57;98.00
60611;BME280;46439;51.164;13.572;2023-04-02T09:10:21;100281.27;;;3.65;98.28
60611;BME280;46439;51.164;13.572;2023-04-02T09:12:51;100287.02;;;3.73;98.72
60611;BME280;46439;51.164;13.572;2023-04-02T09:15:30;100287.40;;;3.73;98.48
60611;BME280;46439;51.164;13.572;2023-04-02T09:18:10;100291.95;;;3.72;98.44
60611;BME280;46439;51.164;13.572;2023-04-02T09:20:40;100295.27;;;3.70;98.57
60611;BME280;46439;51.164;13.572;2023-04-02T09:23:15;100301.27;;;3.69;98.11
60611;BME280;46439;51.164;13.572;2023-04-02T09:25:48;100306.73;;;3.69;98.42
60611;BME280;46439;51.164;13.572;2023-04-02T09:28:18;100308.85;;;3.70;98.14
60611;BME280;46439;51.164;13.572;2023-04-02T09:31:00;100310.46;;;3.74;98.39
60611;BME280;46439;51.164;13.572;2023-04-02T09:33:45;100313.52;;;3.73;98.27
60611;BME280;46439;51.164;13.572;2023-04-02T09:36:27;100321.58;;;3.77;98.31
60611;BME280;46439;51.164;13.572;2023-04-02T09:39:02;100326.61;;;3.74;98.27
60611;BME280;46439;51.164;13.572;2023-04-02T09:41:34;100332.63;;;3.77;98.07
60611;BME280;46439;51.164;13.572;2023-04-02T09:44:16;100336.90;;;3.79;98.17
60611;BME280;46439;51.164;13.572;2023-04-02T09:46:56;100337.70;;;3.82;98.12
60611;BME280;46439;51.164;13.572;2023-04-02T09:49:32;100344.39;;;3.88;98.25
60611;BME280;46439;51.164;13.572;2023-04-02T09:52:27;100352.27;;;3.95;98.46
60611;BME280;46439;51.164;13.572;2023-04-02T09:55:18;100352.77;;;4.05;98.67
60611;BME280;46439;51.164;13.572;2023-04-02T09:57:47;100359.17;;;4.03;98.32
60611;BME280;46439;51.164;13.572;2023-04-02T10:00:20;100361.17;;;4.00;98.31
60611;BME280;46439;51.164;13.572;2023-04-02T10:03:05;100367.88;;;3.96;97.84
60611;BME280;46439;51.164;13.572;2023-04-02T10:05:41;100367.91;;;3.94;97.99
60611;BME280;46439;51.164;13.572;2023-04-02T10:08:19;100369.12;;;3.92;98.06
60611;BME280;46439;51.164;13.572;2023-04-02T10:10:50;100376.17;;;3.97;97.96
60611;BME280;46439;51.164;13.572;2023-04-02T10:13:24;100382.01;;;4.00;97.92
60611;BME280;46439;51.164;13.572;2023-04-02T10:15:58;100383.55;;;4.05;97.99
60611;BME280;46439;51.164;13.572;2023-04-02T10:18:39;100390.19;;;4.13;98.28
60611;BME280;46439;51.164;13.572;2023-04-02T10:21:11;100394.25;;;4.12;97.79
60611;BME280;46439;51.164;13.572;2023-04-02T10:23:41;100399.11;;;4.09;97.74
60611;BME280;46439;51.164;13.572;2023-04-02T10:26:40;100402.52;;;4.04;97.74
60611;BME280;46439;51.164;13.572;2023-04-02T10:29:32;100401.79;;;4.00;97.53
60611;BME280;46439;51.164;13.572;2023-04-02T10:32:07;100409.48;;;3.99;97.64
60611;BME280;46439;51.164;13.572;2023-04-02T10:34:42;100412.41;;;4.01;97.25
60611;BME280;46439;51.164;13.572;2023-04-02T10:37:41;100414.99;;;3.97;97.52
60611;BME280;46439;51.164;13.572;2023-04-02T10:40:12;100420.61;;;4.01;97.16
60611;BME280;46439;51.164;13.572;2023-04-02T10:42:50;100423.52;;;4.04;97.20
60611;BME280;46439;51.164;13.572;2023-04-02T10:45:37;100425.13;;;4.13;97.35
60611;BME280;46439;51.164;13.572;2023-04-02T10:48:17;100431.75;;;4.21;97.86
60611;BME280;46439;51.164;13.572;2023-04-02T10:50:58;100433.57;;;4.21;97.57
60611;BME280;46439;51.164;13.572;2023-04-02T10:53:32;100435.52;;;4.19;97.33
60611;BME280;46439;51.164;13.572;2023-04-02T10:56:06;100439.21;;;4.24;97.56
60611;BME280;46439;51.164;13.572;2023-04-02T10:58:41;100443.35;;;4.32;97.56
60611;BME280;46439;51.164;13.572;2023-04-02T11:01:16;100449.47;;;4.37;97.52
60611;BME280;46439;51.164;13.572;2023-04-02T11:03:51;100449.73;;;4.37;97.43
60611;BME280;46439;51.164;13.572;2023-04-02T11:06:24;100452.34;;;4.35;97.13
60611;BME280;46439;51.164;13.572;2023-04-02T11:08:57;100455.94;;;4.39;97.35
60611;BME280;46439;51.164;13.572;2023-04-02T11:11:30;100459.70;;;4.45;97.51
60611;BME280;46439;51.164;13.572;2023-04-02T11:14:08;100459.29;;;4.53;97.54
60611;BME280;46439;51.164;13.572;2023-04-02T11:16:39;100462.68;;;4.61;97.69
60611;BME280;46439;51.164;13.572;2023-04-02T11:19:24;100468.70;;;4.63;97.59
60611;BME280;46439;51.164;13.572;2023-04-02T11:21:54;100473.06;;;4.69;97.74
60611;BME280;46439;51.164;13.572;2023-04-02T11:24:36;100473.77;;;4.76;97.73
60611;BME280;46439;51.164;13.572;2023-04-02T11:27:05;100475.21;;;4.78;97.67
60611;BME280;46439;51.164;13.572;2023-04-02T11:29:35;100478.34;;;4.78;97.40
60611;BME280;46439;51.164;13.572;2023-04-02T11:32:29;100479.52;;;4.86;97.57
60611;BME280;46439;51.164;13.572;2023-04-02T11:37:46;100489.36;;;4.86;97.05
60611;BME280;46439;51.164;13.572;2023-04-02T11:40:42;100494.02;;;4.85;97.06
60611;BME280;46439;51.164;13.572;2023-04-02T11:43:48;100499.46;;;4.91;97.15
60611;BME280;46439;51.164;13.572;2023-04-02T11:46:43;100505.06;;;5.04;97.36
60611;BME280;46439;51.164;13.572;2023-04-02T11:49:39;100505.08;;;5.09;97.29
60611;BME280;46439;51.164;13.572;2023-04-02T11:52:24;100507.77;;;5.16;97.27
60611;BME280;46439;51.164;13.572;2023-04-02T11:55:16;100508.63;;;5.26;97.30
60611;BME280;46439;51.164;13.572;2023-04-02T11:58:07;100508.31;;;5.25;97.20
60611;BME280;46439;51.164;13.572;2023-04-02T12:00:54;100513.04;;;5.28;97.16
60611;BME280;46439;51.164;13.572;2023-04-02T12:03:44;100519.87;;;5.34;97.07
60611;BME280;46439;51.164;13.572;2023-04-02T12:06:24;100519.58;;;5.35;96.71
60611;BME280;46439;51.164;13.572;2023-04-02T12:09:04;100520.78;;;5.38;96.64
60611;BME280;46439;51.164;13.572;2023-04-02T12:11:38;100526.45;;;5.41;96.83
60611;BME280;46439;51.164;13.572;2023-04-02T12:14:41;100528.70;;;5.44;96.64
60611;BME280;46439;51.164;13.572;2023-04-02T12:17:23;100527.04;;;5.49;96.56
60611;BME280;46439;51.164;13.572;2023-04-02T12:19:54;100532.92;;;5.57;96.74
60611;BME280;46439;51.164;13.572;2023-04-02T12:22:25;100533.42;;;5.62;96.34
60611;BME280;46439;51.164;13.572;2023-04-02T12:24:58;100536.70;;;5.65;96.23
60611;BME280;46439;51.164;13.572;2023-04-02T12:27:28;100541.92;;;5.71;96.17
60611;BME280;46439;51.164;13.572;2023-04-02T12:30:16;100543.23;;;5.76;96.29
60611;BME280;46439;51.164;13.572;2023-04-02T12:32:44;100547.51;;;5.74;96.01
60611;BME280;46439;51.164;13.572;2023-04-02T12:35:29;100555.14;;;5.75;95.82
60611;BME280;46439;51.164;13.572;2023-04-02T12:38:00;100556.88;;;5.77;95.77
60611;BME280;46439;51.164;13.572;2023-04-02T12:40:29;100559.14;;;5.76;95.65
60611;BME280;46439;51.164;13.572;2023-04-02T12:42:57;100559.05;;;5.77;95.42
60611;BME280;46439;51.164;13.572;2023-04-02T12:45:28;100558.73;;;5.76;95.30
60611;BME280;46439;51.164;13.572;2023-04-02T12:48:02;100559.90;;;5.84;95.44
60611;BME280;46439;51.164;13.572;2023-04-02T12:50:32;100563.30;;;5.92;95.37
60611;BME280;46439;51.164;13.572;2023-04-02T12:53:00;100557.11;;;5.95;95.32
60611;BME280;46439;51.164;13.572;2023-04-02T12:55:29;100561.33;;;6.03;95.20
60611;BME280;46439;51.164;13.572;2023-04-02T12:57:59;100565.72;;;6.07;95.31
60611;BME280;46439;51.164;13.572;2023-04-02T13:00:36;100566.86;;;6.05;94.92
60611;BME280;46439;51.164;13.572;2023-04-02T13:03:17;100566.83;;;6.03;94.75
60611;BME280;46439;51.164;13.572;2023-04-02T13:05:49;100572.48;;;6.06;94.63
60611;BME280;46439;51.164;13.572;2023-04-02T13:08:21;100574.27;;;6.08;94.59
60611;BME280;46439;51.164;13.572;2023-04-02T13:10:55;100583.14;;;6.04;94.39
60611;BME280;46439;51.164;13.572;2023-04-02T13:13:28;100590.17;;;6.06;94.26
60611;BME280;46439;51.164;13.572;2023-04-02T13:16:06;100593.98;;;6.07;94.20
60611;BME280;46439;51.164;13.572;2023-04-02T13:18:49;100595.19;;;6.04;94.02
60611;BME280;46439;51.164;13.572;2023-04-02T13:21:25;100597.62;;;6.00;93.83
60611;BME280;46439;51.164;13.572;2023-04-02T13:23:57;100597.64;;;6.00;93.62
60611;BME280;46439;51.164;13.572;2023-04-02T13:26:27;100597.45;;;6.00;93.52
60611;BME280;46439;51.164;13.572;2023-04-02T13:29:00;100603.92;;;5.95;93.39
60611;BME280;46439;51.164;13.572;2023-04-02T13:31:30;100603.89;;;5.91;93.22
60611;BME280;46439;51.164;13.572;2023-04-02T13:33:59;100611.56;;;5.87;92.99
60611;BME280;46439;51.164;13.572;2023-04-02T13:36:28;100612.01;;;5.80;92.73
60611;BME280;46439;51.164;13.572;2023-04-02T13:38:57;100617.55;;;5.75;92.51
60611;BME280;46439;51.164;13.572;2023-04-02T13:41:27;100619.97;;;5.75;92.62
60611;BME280;46439;51.164;13.572;2023-04-02T13:43:58;100626.81;;;5.76;92.66